createdAt,value
2022-08-17T00:03:05.690Z,18.88
2022-08-17T00:08:19.149Z,18.83
2022-08-17T00:13:45.806Z,18.90
2022-08-17T00:19:09.962Z,18.87
2022-08-17T00:24:38.101Z,18.75
2022-08-17T00:30:00.378Z,18.67
2022-08-17T00:35:29.776Z,18.58
2022-08-17T00:40:49.031Z,18.55
2022-08-17T00:46:19.536Z,18.64
2022-08-17T00:51:45.843Z,18.78
2022-08-17T00:57:21.444Z,18.85
2022-08-17T01:02:51.084Z,18.80
2022-08-17T01:08:12.938Z,18.73
2022-08-17T01:13:44.376Z,18.65
2022-08-17T01:19:18.554Z,18.60
2022-08-17T01:24:46.791Z,18.45
2022-08-17T01:30:00.441Z,18.31
2022-08-17T01:35:30.954Z,18.29
2022-08-17T01:41:28.322Z,18.28
2022-08-17T01:46:58.097Z,18.34
2022-08-17T01:52:29.888Z,18.38
2022-08-17T01:57:58.160Z,18.23
2022-08-17T02:03:28.188Z,18.10
2022-08-17T02:09:01.773Z,17.99
2022-08-17T02:14:23.854Z,17.94
2022-08-17T02:19:44.064Z,17.98
2022-08-17T02:24:59.509Z,17.92
2022-08-17T02:30:59.243Z,17.85
2022-08-17T02:36:11.584Z,17.89
2022-08-17T02:41:28.618Z,17.99
2022-08-17T02:46:47.836Z,18.01
2022-08-17T02:52:16.002Z,17.91
2022-08-17T02:58:05.181Z,17.74
2022-08-17T03:03:23.995Z,17.63
2022-08-17T03:08:47.440Z,17.58
2022-08-17T03:14:16.809Z,17.53
2022-08-17T03:19:43.274Z,17.48
2022-08-17T03:25:13.086Z,17.41
2022-08-17T03:30:43.527Z,17.30
2022-08-17T03:36:12.136Z,17.26
2022-08-17T03:41:32.341Z,17.28
2022-08-17T03:47:18.321Z,17.30
2022-08-17T03:53:05.363Z,17.30
2022-08-17T03:58:32.952Z,17.29
2022-08-17T04:03:57.169Z,17.31
2022-08-17T04:09:28.208Z,17.31
2022-08-17T04:14:51.669Z,17.37
2022-08-17T04:20:17.574Z,17.45
2022-08-17T04:25:43.949Z,17.55
2022-08-17T04:31:04.928Z,17.71
2022-08-17T04:36:34.507Z,18.00
2022-08-17T04:42:09.424Z,18.42
2022-08-17T04:47:37.099Z,18.87
2022-08-17T04:52:49.585Z,19.31
2022-08-17T04:58:11.555Z,19.81
2022-08-17T05:03:39.394Z,20.35
2022-08-17T05:09:07.901Z,20.86
2022-08-17T05:14:35.551Z,21.38
2022-08-17T05:20:03.186Z,21.91
2022-08-17T05:25:12.141Z,22.40
2022-08-17T05:30:21.843Z,22.92
2022-08-17T05:35:51.362Z,23.72
2022-08-17T05:41:06.785Z,24.47
2022-08-17T05:46:29.959Z,25.07
2022-08-17T05:52:08.901Z,25.63
2022-08-17T05:58:15.775Z,25.84
2022-08-17T06:03:49.477Z,25.93
2022-08-17T06:09:26.528Z,26.25
2022-08-17T06:14:54.559Z,26.94
2022-08-17T06:20:16.113Z,27.59
2022-08-17T06:25:31.654Z,28.10
2022-08-17T06:30:59.337Z,28.54
2022-08-17T06:36:19.467Z,28.94
2022-08-17T06:41:37.929Z,29.51
2022-08-17T06:46:52.605Z,30.18
2022-08-17T06:52:09.306Z,30.72
2022-08-17T06:57:29.813Z,31.27
2022-08-17T07:02:51.890Z,31.47
2022-08-17T07:08:18.770Z,32.04
2022-08-17T07:13:39.364Z,32.63
2022-08-17T07:18:48.075Z,32.96
2022-08-17T07:24:29.572Z,33.22
2022-08-17T07:29:42.265Z,33.71
2022-08-17T07:35:15.379Z,33.47
2022-08-17T07:40:30.208Z,33.76
2022-08-17T07:46:00.034Z,34.20
2022-08-17T07:51:18.427Z,34.13
2022-08-17T07:56:43.234Z,33.73
2022-08-17T08:02:06.398Z,33.25
2022-08-17T08:07:26.656Z,32.91
2022-08-17T08:12:40.174Z,32.52
2022-08-17T08:17:54.898Z,32.29
2022-08-17T08:23:12.618Z,32.34
2022-08-17T08:28:35.385Z,32.54
2022-08-17T08:33:56.437Z,32.36
2022-08-17T08:39:14.537Z,32.12
2022-08-17T08:45:00.414Z,31.93
2022-08-17T08:50:36.877Z,31.69
2022-08-17T08:55:54.101Z,31.54
2022-08-17T09:01:24.603Z,31.26
2022-08-17T09:06:46.137Z,30.95
2022-08-17T09:12:03.924Z,30.71
2022-08-17T09:17:16.509Z,30.50
2022-08-17T09:22:33.954Z,30.30
2022-08-17T09:27:57.611Z,30.14
2022-08-17T09:33:10.684Z,30.19
2022-08-17T09:38:26.286Z,30.34
2022-08-17T09:43:45.003Z,30.49
2022-08-17T09:48:58.808Z,30.40
2022-08-17T09:54:38.081Z,30.40
2022-08-17T10:00:12.137Z,30.48
2022-08-17T10:05:24.270Z,30.47
2022-08-17T10:10:43.899Z,30.39
2022-08-17T10:16:15.014Z,30.50
2022-08-17T10:22:00.614Z,30.60
2022-08-17T10:27:23.268Z,30.72
2022-08-17T10:32:37.086Z,30.72
2022-08-17T10:37:59.605Z,30.76
2022-08-17T10:43:32.000Z,30.83
2022-08-17T10:48:42.899Z,30.82
2022-08-17T10:54:02.269Z,30.90
2022-08-17T10:59:09.928Z,30.89
2022-08-17T11:04:39.488Z,30.85
2022-08-17T11:10:05.718Z,30.88
2022-08-17T11:15:38.486Z,30.87
2022-08-17T11:21:37.903Z,30.95
2022-08-17T11:26:49.112Z,31.03
2022-08-17T11:32:08.000Z,31.19
2022-08-17T11:37:43.359Z,31.23
2022-08-17T11:43:25.574Z,31.16
2022-08-17T11:49:00.763Z,31.13
2022-08-17T11:54:45.014Z,31.01
2022-08-17T12:00:07.071Z,31.01
2022-08-17T12:05:35.379Z,31.07
2022-08-17T12:11:04.916Z,31.13
2022-08-17T12:16:17.931Z,31.17
2022-08-17T12:21:41.693Z,31.29
2022-08-17T12:26:56.897Z,31.34
2022-08-17T12:32:08.017Z,31.41
2022-08-17T12:37:20.811Z,31.33
2022-08-17T12:42:37.763Z,31.25
2022-08-17T12:48:04.403Z,31.22
2022-08-17T12:53:17.040Z,31.18
2022-08-17T12:58:30.147Z,31.21
2022-08-17T13:03:52.820Z,31.21
2022-08-17T13:09:13.277Z,31.26
2022-08-17T13:14:21.108Z,31.25
2022-08-17T13:19:39.979Z,31.33
2022-08-17T13:25:04.222Z,31.53
2022-08-17T13:30:21.196Z,31.60
2022-08-17T13:35:47.075Z,31.69
2022-08-17T13:40:58.499Z,31.70
2022-08-17T13:46:20.148Z,31.66
2022-08-17T13:51:34.983Z,31.63
2022-08-17T13:57:22.446Z,31.60
2022-08-17T14:02:34.235Z,31.60
2022-08-17T14:07:43.533Z,31.62
2022-08-17T14:12:52.471Z,31.74
2022-08-17T14:18:03.065Z,31.88
2022-08-17T14:23:10.817Z,32.02
2022-08-17T14:28:19.099Z,32.11
2022-08-17T14:33:27.426Z,32.17
2022-08-17T14:38:43.208Z,32.09
2022-08-17T14:43:54.128Z,32.01
2022-08-17T14:49:03.333Z,32.00
2022-08-17T14:54:25.603Z,31.86
2022-08-17T14:59:59.186Z,31.80
2022-08-17T15:05:58.581Z,31.72
2022-08-17T15:11:14.531Z,31.70
2022-08-17T15:16:29.999Z,31.81
2022-08-17T15:21:40.049Z,31.81
2022-08-17T15:27:33.578Z,31.76
2022-08-17T15:33:13.840Z,31.72
2022-08-17T15:38:30.244Z,31.69
2022-08-17T15:43:40.771Z,31.66
2022-08-17T15:49:03.297Z,31.61
2022-08-17T15:54:22.871Z,31.52
2022-08-17T15:59:38.520Z,31.41
2022-08-17T16:04:50.625Z,31.24
2022-08-17T16:10:18.694Z,30.94
2022-08-17T16:15:32.113Z,30.69
2022-08-17T16:20:46.128Z,30.52
2022-08-17T16:26:10.469Z,30.33
2022-08-17T16:31:21.265Z,30.20
2022-08-17T16:36:35.741Z,30.10
2022-08-17T16:42:43.162Z,29.97
2022-08-17T16:47:52.602Z,29.75
2022-08-17T16:53:11.034Z,29.52
2022-08-17T16:58:41.610Z,29.29
2022-08-17T17:04:05.965Z,29.14
2022-08-17T17:09:34.015Z,29.01
2022-08-17T17:15:02.035Z,28.89
2022-08-17T17:20:24.103Z,28.75
2022-08-17T17:25:48.843Z,28.58
2022-08-17T17:31:07.307Z,28.40
2022-08-17T17:36:27.533Z,28.25
2022-08-17T17:41:43.168Z,28.10
2022-08-17T17:47:11.348Z,27.97
2022-08-17T17:52:32.973Z,27.83
2022-08-17T17:57:58.017Z,27.68
2022-08-17T18:03:21.358Z,27.54
2022-08-17T18:08:55.081Z,27.43
2022-08-17T18:14:26.308Z,27.30
2022-08-17T18:19:34.298Z,27.17
2022-08-17T18:24:47.510Z,27.08
2022-08-17T18:29:56.948Z,26.96
2022-08-17T18:35:28.568Z,26.81
2022-08-17T18:40:40.148Z,26.62
2022-08-17T18:45:51.466Z,26.45
2022-08-17T18:51:21.625Z,26.29
2022-08-17T18:56:46.104Z,26.10
2022-08-17T19:02:16.009Z,25.95
2022-08-17T19:07:54.532Z,25.78
2022-08-17T19:13:15.227Z,25.62
2022-08-17T19:18:48.853Z,25.48
2022-08-17T19:24:04.871Z,25.40
2022-08-17T19:29:22.429Z,25.35
2022-08-17T19:34:40.285Z,25.21
2022-08-17T19:40:10.459Z,25.08
2022-08-17T19:45:45.964Z,24.98
2022-08-17T19:51:09.851Z,24.84
2022-08-17T19:56:46.436Z,24.71
2022-08-17T20:02:03.509Z,24.62
2022-08-17T20:07:19.947Z,24.53
2022-08-17T20:12:36.409Z,24.42
2022-08-17T20:17:47.743Z,24.27
2022-08-17T20:23:05.997Z,24.16
2022-08-17T20:28:25.332Z,24.08
2022-08-17T20:33:42.072Z,24.01
2022-08-17T20:39:00.567Z,23.96
2022-08-17T20:44:41.782Z,23.94
2022-08-17T20:50:07.958Z,23.91
2022-08-17T20:55:53.352Z,23.89
2022-08-17T21:01:20.290Z,23.83
2022-08-17T21:06:30.934Z,23.79
2022-08-17T21:12:05.026Z,23.77
2022-08-17T21:17:38.769Z,23.75
2022-08-17T21:23:00.759Z,23.71
2022-08-17T21:28:33.718Z,23.68
2022-08-17T21:34:30.645Z,23.65
2022-08-17T21:39:47.478Z,23.61
2022-08-17T21:45:21.112Z,23.55
2022-08-17T21:50:32.323Z,23.49
2022-08-17T21:55:53.875Z,23.43
2022-08-17T22:01:27.021Z,23.36
2022-08-17T22:06:56.723Z,23.31
2022-08-17T22:12:12.666Z,23.24
2022-08-17T22:17:46.756Z,23.17
2022-08-17T22:23:34.691Z,23.13
2022-08-17T22:28:50.795Z,23.06
2022-08-17T22:34:16.189Z,23.00
2022-08-17T22:39:42.073Z,22.93
2022-08-17T22:44:55.025Z,22.86
2022-08-17T22:50:06.494Z,22.82
2022-08-17T22:55:37.026Z,22.81
2022-08-17T23:00:50.781Z,22.79
2022-08-17T23:06:10.128Z,22.70
2022-08-17T23:11:36.892Z,22.59
2022-08-17T23:17:01.717Z,22.57
2022-08-17T23:22:12.641Z,22.60
2022-08-17T23:27:30.755Z,22.64
2022-08-17T23:32:47.425Z,22.65
2022-08-17T23:38:15.082Z,22.58
2022-08-17T23:43:25.761Z,22.57
2022-08-17T23:48:56.766Z,22.47
2022-08-17T23:54:12.080Z,22.40
2022-08-17T23:59:22.458Z,22.30
